createdAt,value
2022-12-09T00:00:21.240Z,89.10
2022-12-09T00:02:38.740Z,89.11
2022-12-09T00:04:55.810Z,88.93
2022-12-09T00:07:12.841Z,89.74
2022-12-09T00:09:30.021Z,89.82
2022-12-09T00:11:47.281Z,89.81
2022-12-09T00:14:04.314Z,89.80
2022-12-09T00:16:21.351Z,89.58
2022-12-09T00:18:38.681Z,90.10
2022-12-09T00:20:56.922Z,89.68
2022-12-09T00:23:14.032Z,89.27
2022-12-09T00:25:31.025Z,90.26
2022-12-09T00:27:48.050Z,89.97
2022-12-09T00:30:08.284Z,90.03
2022-12-09T00:32:25.409Z,89.98
2022-12-09T00:34:42.838Z,90.69
2022-12-09T00:37:01.444Z,90.38
2022-12-09T00:39:18.837Z,89.81
2022-12-09T00:41:36.656Z,89.12
2022-12-09T00:43:54.287Z,89.65
2022-12-09T00:46:12.534Z,90.25
2022-12-09T00:48:29.520Z,89.98
2022-12-09T00:50:46.615Z,90.57
2022-12-09T00:53:04.839Z,90.10
2022-12-09T00:55:22.029Z,90.08
2022-12-09T00:57:39.256Z,90.14
2022-12-09T00:59:56.597Z,90.48
2022-12-09T01:02:13.739Z,90.77
2022-12-09T01:04:31.219Z,90.84
2022-12-09T01:06:48.526Z,90.40
2022-12-09T01:09:06.049Z,90.41
2022-12-09T01:11:23.190Z,89.45
2022-12-09T01:13:40.187Z,90.41
2022-12-09T01:18:37.805Z,90.48
2022-12-09T01:20:54.918Z,89.99
2022-12-09T01:23:11.985Z,90.14
2022-12-09T01:25:30.299Z,90.24
2022-12-09T01:27:47.303Z,90.58
2022-12-09T01:30:04.460Z,91.16
2022-12-09T01:32:22.120Z,90.47
2022-12-09T01:34:39.239Z,90.52
2022-12-09T01:36:56.276Z,90.93
2022-12-09T01:39:13.394Z,90.19
2022-12-09T01:41:30.748Z,90.26
2022-12-09T01:43:47.912Z,90.41
2022-12-09T01:46:04.944Z,90.60
2022-12-09T01:48:23.285Z,90.41
2022-12-09T01:50:40.541Z,90.50
2022-12-09T01:52:57.458Z,90.42
2022-12-09T01:55:14.668Z,90.58
2022-12-09T01:57:32.834Z,90.34
2022-12-09T01:59:50.470Z,90.77
2022-12-09T02:02:07.623Z,90.68
2022-12-09T02:04:25.608Z,90.92
2022-12-09T02:06:42.964Z,90.65
2022-12-09T02:09:00.046Z,91.28
2022-12-09T02:11:18.403Z,91.15
2022-12-09T02:13:35.821Z,90.62
2022-12-09T02:15:53.331Z,90.64
2022-12-09T02:18:10.545Z,90.68
2022-12-09T02:20:27.858Z,90.54
2022-12-09T02:22:45.220Z,90.49
2022-12-09T02:25:02.269Z,90.36
2022-12-09T02:27:20.681Z,90.75
2022-12-09T02:29:39.094Z,90.51
2022-12-09T02:31:56.151Z,90.65
2022-12-09T02:34:13.621Z,90.72
2022-12-09T02:36:31.075Z,90.38
2022-12-09T02:38:48.363Z,90.58
2022-12-09T02:41:05.929Z,90.60
2022-12-09T02:43:22.951Z,90.84
2022-12-09T02:45:40.313Z,91.11
2022-12-09T02:47:57.500Z,90.78
2022-12-09T02:50:14.837Z,90.68
2022-12-09T02:52:32.333Z,90.77
2022-12-09T02:54:49.456Z,91.03
2022-12-09T02:57:06.879Z,90.87
2022-12-09T02:59:23.951Z,90.72
2022-12-09T03:01:41.203Z,91.26
2022-12-09T03:03:59.517Z,90.73
2022-12-09T03:06:17.218Z,90.24
2022-12-09T03:08:34.242Z,89.94
2022-12-09T03:10:51.354Z,89.89
2022-12-09T03:13:08.369Z,89.92
2022-12-09T03:15:26.599Z,90.72
2022-12-09T03:17:43.970Z,90.57
2022-12-09T03:20:01.058Z,90.47
2022-12-09T03:22:18.362Z,90.40
2022-12-09T03:24:35.446Z,90.47
2022-12-09T03:26:52.611Z,91.36
2022-12-09T03:29:09.822Z,91.38
2022-12-09T03:31:27.086Z,90.72
2022-12-09T03:33:44.605Z,90.78
2022-12-09T03:36:01.902Z,91.34
2022-12-09T03:38:18.927Z,90.83
2022-12-09T03:40:35.956Z,91.03
2022-12-09T03:42:53.208Z,90.81
2022-12-09T03:45:10.336Z,91.34
2022-12-09T03:47:27.732Z,91.60
2022-12-09T03:49:44.895Z,90.80
2022-12-09T03:52:01.927Z,91.24
2022-12-09T03:54:19.276Z,91.67
2022-12-09T03:56:36.314Z,91.36
2022-12-09T03:58:53.199Z,91.43
2022-12-09T04:01:10.466Z,91.22
2022-12-09T04:03:28.561Z,91.13
2022-12-09T04:05:47.213Z,90.92
2022-12-09T04:08:04.309Z,91.26
2022-12-09T04:10:21.778Z,91.39
2022-12-09T04:12:38.815Z,91.63
2022-12-09T04:14:56.076Z,91.73
2022-12-09T04:17:13.437Z,91.52
2022-12-09T04:19:30.791Z,91.87
2022-12-09T04:21:48.290Z,92.15
2022-12-09T04:24:05.245Z,92.27
2022-12-09T04:26:22.536Z,92.18
2022-12-09T04:28:39.919Z,92.36
2022-12-09T04:30:57.384Z,92.13
2022-12-09T04:33:15.250Z,91.81
2022-12-09T04:35:32.544Z,91.69
2022-12-09T04:37:49.953Z,91.53
2022-12-09T04:40:08.377Z,91.85
2022-12-09T04:42:26.002Z,91.71
2022-12-09T04:44:43.094Z,92.27
2022-12-09T04:47:00.428Z,91.75
2022-12-09T04:49:17.667Z,91.57
2022-12-09T04:51:39.669Z,92.08
2022-12-09T04:53:57.402Z,92.32
2022-12-09T04:56:14.564Z,91.89
2022-12-09T04:58:31.864Z,91.77
2022-12-09T05:00:49.005Z,91.54
2022-12-09T05:03:06.606Z,91.87
2022-12-09T05:05:23.993Z,91.57
2022-12-09T05:07:42.483Z,91.64
2022-12-09T05:10:00.492Z,91.94
2022-12-09T05:12:18.042Z,91.64
2022-12-09T05:14:35.649Z,91.79
2022-12-09T05:16:53.098Z,92.00
2022-12-09T05:19:10.598Z,92.41
2022-12-09T05:21:28.154Z,91.76
2022-12-09T05:23:45.300Z,91.91
2022-12-09T05:26:02.681Z,92.01
2022-12-09T05:28:20.083Z,92.07
2022-12-09T05:30:37.584Z,92.71
2022-12-09T05:32:55.331Z,92.72
2022-12-09T05:35:12.647Z,92.18
2022-12-09T05:37:29.759Z,92.26
2022-12-09T05:39:47.584Z,91.92
2022-12-09T05:42:04.786Z,91.55
2022-12-09T05:44:22.219Z,91.75
2022-12-09T05:46:39.674Z,92.17
2022-12-09T05:48:57.083Z,92.48
2022-12-09T05:51:14.237Z,92.55
2022-12-09T05:53:32.087Z,92.05
2022-12-09T05:55:49.689Z,92.23
2022-12-09T05:58:07.454Z,92.44
2022-12-09T06:00:24.503Z,92.08
2022-12-09T06:02:41.815Z,92.51
2022-12-09T06:04:59.371Z,92.79
2022-12-09T06:07:17.056Z,92.02
2022-12-09T06:09:34.540Z,91.89
2022-12-09T06:11:51.984Z,92.15
2022-12-09T06:14:09.513Z,92.29
2022-12-09T06:16:27.293Z,92.74
2022-12-09T06:18:46.030Z,92.64
2022-12-09T06:21:06.224Z,92.53
2022-12-09T06:23:23.658Z,92.15
2022-12-09T06:25:41.097Z,91.96
2022-12-09T06:27:59.035Z,92.98
2022-12-09T06:30:16.893Z,92.13
2022-12-09T06:32:34.447Z,92.19
2022-12-09T06:34:51.681Z,91.83
2022-12-09T06:37:09.293Z,92.11
2022-12-09T06:39:26.797Z,92.08
2022-12-09T06:41:44.467Z,92.16
2022-12-09T06:44:01.544Z,91.77
2022-12-09T06:46:19.017Z,92.39
2022-12-09T06:48:37.180Z,92.34
2022-12-09T06:50:55.565Z,92.26
2022-12-09T06:53:12.527Z,92.24
2022-12-09T06:55:29.909Z,92.24
2022-12-09T06:57:47.442Z,91.91
2022-12-09T07:00:04.871Z,92.35
2022-12-09T07:02:22.696Z,91.62
2022-12-09T07:04:40.436Z,91.81
2022-12-09T07:06:59.028Z,91.96
2022-12-09T07:09:16.535Z,92.06
2022-12-09T07:11:35.177Z,92.15
2022-12-09T07:13:52.895Z,92.33
2022-12-09T07:16:10.322Z,92.63
2022-12-09T07:18:27.804Z,92.59
2022-12-09T07:20:46.491Z,92.13
2022-12-09T07:23:04.095Z,92.67
2022-12-09T07:25:21.535Z,92.24
2022-12-09T07:27:38.697Z,92.96
2022-12-09T07:29:56.032Z,92.58
2022-12-09T07:32:13.151Z,92.21
2022-12-09T07:34:31.557Z,92.74
2022-12-09T07:36:49.460Z,92.42
2022-12-09T07:39:06.943Z,93.04
2022-12-09T07:41:24.452Z,92.56
2022-12-09T07:43:41.637Z,92.31
2022-12-09T07:45:58.932Z,92.88
2022-12-09T07:48:16.244Z,92.17
2022-12-09T07:50:33.877Z,92.43
2022-12-09T07:52:50.965Z,92.78
2022-12-09T07:55:08.382Z,92.67
2022-12-09T07:57:26.149Z,92.71
2022-12-09T07:59:43.402Z,92.81
2022-12-09T08:02:05.754Z,92.75
2022-12-09T08:04:23.857Z,92.55
2022-12-09T08:06:41.455Z,92.48
2022-12-09T08:08:59.621Z,92.90
2022-12-09T08:11:17.308Z,92.92
2022-12-09T08:13:34.682Z,92.75
2022-12-09T08:15:51.742Z,92.33
2022-12-09T08:18:09.294Z,92.25
2022-12-09T08:20:29.348Z,92.34
2022-12-09T08:22:47.422Z,92.69
2022-12-09T08:25:04.981Z,92.69
2022-12-09T08:27:22.591Z,92.34
2022-12-09T08:29:40.185Z,92.46
2022-12-09T08:31:57.671Z,91.74
2022-12-09T08:34:16.145Z,91.78
2022-12-09T08:36:33.289Z,91.57
2022-12-09T08:38:51.017Z,92.09
2022-12-09T08:41:08.580Z,91.99
2022-12-09T08:43:25.808Z,91.93
2022-12-09T08:45:43.337Z,91.85
2022-12-09T08:48:00.635Z,92.44
2022-12-09T08:50:18.913Z,92.01
2022-12-09T08:52:40.485Z,92.65
2022-12-09T08:54:58.544Z,91.98
2022-12-09T08:57:15.533Z,91.97
2022-12-09T08:59:32.566Z,92.87
2022-12-09T09:01:49.614Z,92.71
2022-12-09T09:04:07.649Z,92.01
2022-12-09T09:06:25.297Z,92.42
2022-12-09T09:08:43.427Z,92.25
2022-12-09T09:11:01.101Z,92.37
2022-12-09T09:13:18.899Z,92.31
2022-12-09T09:15:36.626Z,92.18
2022-12-09T09:17:54.345Z,91.59
2022-12-09T09:20:12.582Z,92.32
2022-12-09T09:22:29.910Z,91.17
2022-12-09T09:24:48.318Z,91.06
2022-12-09T09:27:06.073Z,91.21
2022-12-09T09:29:23.185Z,91.74
2022-12-09T09:31:42.105Z,90.95
2022-12-09T09:33:59.858Z,90.88
2022-12-09T09:36:17.102Z,90.80
2022-12-09T09:38:34.672Z,90.95
2022-12-09T09:40:52.017Z,90.41
2022-12-09T09:43:09.637Z,90.64
2022-12-09T09:45:26.852Z,90.25
2022-12-09T09:47:44.098Z,89.68
2022-12-09T09:50:01.722Z,89.20
2022-12-09T09:52:19.043Z,88.73
2022-12-09T09:54:37.306Z,88.76
2022-12-09T09:56:55.233Z,88.89
2022-12-09T09:59:12.800Z,89.34
2022-12-09T10:01:31.445Z,88.52
2022-12-09T10:03:49.089Z,88.64
2022-12-09T10:06:06.863Z,89.48
2022-12-09T10:08:24.852Z,88.72
2022-12-09T10:10:43.442Z,88.10
2022-12-09T10:13:06.145Z,88.40
2022-12-09T10:15:27.000Z,87.03
2022-12-09T10:17:45.003Z,88.47
2022-12-09T10:20:02.790Z,86.63
2022-12-09T10:22:20.341Z,86.21
2022-12-09T10:24:40.455Z,86.58
2022-12-09T10:26:57.886Z,87.00
2022-12-09T10:29:16.155Z,86.31
2022-12-09T10:31:33.639Z,85.65
2022-12-09T10:33:51.370Z,85.41
2022-12-09T10:36:08.518Z,84.95
2022-12-09T10:38:26.898Z,84.10
2022-12-09T10:40:45.298Z,84.89
2022-12-09T10:43:02.812Z,84.42
2022-12-09T10:45:21.666Z,85.05
2022-12-09T10:47:38.923Z,84.86
2022-12-09T10:49:56.329Z,84.84
2022-12-09T10:52:13.443Z,84.81
2022-12-09T10:54:31.086Z,85.40
2022-12-09T10:56:48.693Z,85.38
2022-12-09T10:59:06.108Z,85.82
2022-12-09T11:01:23.666Z,85.16
2022-12-09T11:03:40.768Z,85.39
2022-12-09T11:05:58.420Z,85.42
2022-12-09T11:08:16.222Z,86.84
2022-12-09T11:10:33.722Z,84.45
2022-12-09T11:12:51.327Z,85.74
2022-12-09T11:15:08.965Z,84.83
2022-12-09T11:17:26.721Z,82.84
2022-12-09T11:19:43.868Z,82.58
2022-12-09T11:22:01.848Z,82.08
2022-12-09T11:24:19.529Z,79.65
2022-12-09T11:26:36.754Z,78.40
2022-12-09T11:28:53.867Z,78.58
2022-12-09T11:31:29.122Z,79.49
2022-12-09T11:33:47.369Z,77.95
2022-12-09T11:36:05.138Z,77.02
2022-12-09T11:38:22.890Z,76.00
2022-12-09T11:40:39.946Z,75.76
2022-12-09T11:42:57.320Z,76.21
2022-12-09T11:45:14.398Z,75.22
2022-12-09T11:47:44.865Z,76.19
2022-12-09T11:50:08.792Z,76.19
2022-12-09T11:52:26.084Z,77.29
2022-12-09T11:54:43.121Z,74.21
2022-12-09T11:57:00.012Z,76.10
2022-12-09T11:59:17.041Z,76.11
2022-12-09T12:01:34.400Z,76.78
2022-12-09T12:03:51.336Z,77.19
2022-12-09T12:06:08.343Z,76.65
2022-12-09T12:08:25.438Z,76.15
2022-12-09T12:10:42.782Z,76.91
2022-12-09T12:13:00.210Z,76.54
2022-12-09T12:15:17.332Z,75.40
2022-12-09T12:17:34.719Z,76.27
2022-12-09T12:19:52.083Z,77.26
2022-12-09T12:22:09.310Z,76.59
2022-12-09T12:24:26.303Z,77.25
2022-12-09T12:26:43.217Z,76.22
2022-12-09T12:29:05.516Z,75.83
2022-12-09T12:31:24.441Z,76.96
2022-12-09T12:34:07.594Z,77.74
2022-12-09T12:36:18.685Z,77.82
2022-12-09T12:38:35.715Z,78.34
2022-12-09T12:40:52.698Z,77.57
2022-12-09T12:43:09.736Z,76.36
2022-12-09T12:45:28.034Z,77.44
2022-12-09T12:47:45.119Z,77.65
2022-12-09T12:50:02.358Z,78.31
2022-12-09T12:52:53.765Z,78.59
2022-12-09T12:54:57.271Z,78.92
2022-12-09T12:57:14.586Z,79.16
2022-12-09T12:59:31.802Z,78.70
2022-12-09T13:01:48.673Z,79.03
2022-12-09T13:04:05.677Z,78.80
2022-12-09T13:06:23.251Z,78.07
2022-12-09T13:08:40.246Z,77.07
2022-12-09T13:10:57.247Z,77.24
2022-12-09T13:13:14.659Z,77.11
2022-12-09T13:15:32.921Z,77.94
2022-12-09T13:17:52.118Z,77.30
2022-12-09T13:20:09.574Z,76.94
2022-12-09T13:22:26.807Z,77.27
2022-12-09T13:24:43.768Z,78.27
2022-12-09T13:27:00.806Z,77.80
2022-12-09T13:29:18.865Z,77.76
2022-12-09T13:31:36.132Z,77.47
2022-12-09T13:33:53.393Z,77.69
2022-12-09T13:36:10.324Z,77.42
2022-12-09T13:38:28.663Z,77.89
2022-12-09T13:40:45.897Z,77.53
2022-12-09T13:43:03.200Z,77.80
2022-12-09T13:45:20.082Z,77.22
2022-12-09T13:47:37.306Z,78.34
2022-12-09T13:49:54.540Z,77.80
2022-12-09T13:52:11.833Z,78.18
2022-12-09T13:54:28.827Z,78.37
2022-12-09T13:56:45.746Z,78.68
2022-12-09T13:59:03.023Z,78.60
2022-12-09T14:01:20.285Z,77.58
2022-12-09T14:03:38.292Z,76.85
2022-12-09T14:05:55.594Z,78.13
2022-12-09T14:08:12.661Z,78.57
2022-12-09T14:10:30.804Z,78.66
2022-12-09T14:12:48.803Z,78.29
2022-12-09T14:15:05.773Z,78.15
2022-12-09T14:17:22.798Z,77.81
2022-12-09T14:19:40.766Z,77.89
2022-12-09T14:21:57.668Z,77.67
2022-12-09T14:24:14.615Z,78.14
2022-12-09T14:26:31.543Z,77.68
2022-12-09T14:28:48.821Z,77.81
2022-12-09T14:31:08.865Z,77.32
2022-12-09T14:33:26.547Z,77.12
2022-12-09T14:35:44.713Z,77.01
2022-12-09T14:38:02.018Z,78.03
2022-12-09T14:40:18.939Z,77.25
2022-12-09T14:42:36.272Z,77.85
2022-12-09T14:44:53.203Z,77.90
2022-12-09T14:47:13.558Z,78.38
2022-12-09T14:49:31.931Z,76.86
2022-12-09T14:51:49.178Z,76.77
2022-12-09T14:54:06.372Z,78.37
2022-12-09T14:56:24.490Z,78.60
2022-12-09T14:58:41.522Z,78.72
2022-12-09T15:00:58.768Z,77.34
2022-12-09T15:03:34.408Z,76.09
2022-12-09T15:05:52.811Z,76.40
2022-12-09T15:08:09.789Z,76.96
2022-12-09T15:10:30.906Z,76.78
2022-12-09T15:12:49.154Z,77.02
2022-12-09T15:15:06.492Z,77.09
2022-12-09T15:17:23.473Z,77.05
2022-12-09T15:22:17.418Z,79.05
2022-12-09T15:24:49.230Z,79.45
2022-12-09T15:27:06.959Z,78.60
2022-12-09T15:29:24.138Z,79.41
2022-12-09T15:31:42.212Z,79.59
2022-12-09T15:33:59.596Z,79.43
2022-12-09T15:36:16.901Z,80.21
2022-12-09T15:38:38.981Z,80.23
2022-12-09T15:40:57.831Z,80.46
2022-12-09T15:43:15.120Z,79.18
2022-12-09T15:45:32.364Z,80.15
2022-12-09T15:47:49.633Z,80.38
2022-12-09T15:50:07.174Z,80.56
2022-12-09T15:52:25.432Z,78.69
2022-12-09T15:54:42.395Z,79.01
2022-12-09T15:57:00.409Z,79.32
2022-12-09T15:59:17.333Z,79.69
2022-12-09T16:01:34.427Z,80.43
2022-12-09T16:03:51.523Z,79.48
2022-12-09T16:06:08.698Z,79.75
2022-12-09T16:08:26.733Z,81.32
2022-12-09T16:10:45.039Z,81.57
2022-12-09T16:13:02.368Z,80.48
2022-12-09T16:15:19.670Z,81.91
2022-12-09T16:17:36.537Z,82.12
2022-12-09T16:19:53.845Z,82.61
2022-12-09T16:22:12.138Z,82.63
2022-12-09T16:24:50.769Z,82.95
2022-12-09T16:27:06.004Z,82.96
2022-12-09T16:29:23.456Z,83.03
2022-12-09T16:31:40.745Z,83.08
2022-12-09T16:33:57.777Z,83.06
2022-12-09T16:36:15.712Z,83.12
2022-12-09T16:38:32.796Z,83.66
2022-12-09T16:40:49.763Z,83.61
2022-12-09T16:43:07.088Z,83.57
2022-12-09T16:45:25.028Z,84.13
2022-12-09T16:47:41.996Z,83.63
2022-12-09T16:49:59.033Z,83.97
2022-12-09T16:52:16.048Z,84.17
2022-12-09T16:54:33.461Z,83.83
2022-12-09T16:56:51.392Z,83.82
2022-12-09T16:59:08.376Z,84.53
2022-12-09T17:01:25.696Z,83.97
2022-12-09T17:03:42.782Z,84.02
2022-12-09T17:05:59.815Z,84.35
2022-12-09T17:08:16.915Z,84.92
2022-12-09T17:10:33.968Z,84.12
2022-12-09T17:12:50.997Z,84.07
2022-12-09T17:15:07.934Z,85.24
2022-12-09T17:17:24.839Z,85.20
2022-12-09T17:19:43.197Z,85.06
2022-12-09T17:22:01.147Z,85.01
2022-12-09T17:24:18.382Z,84.84
2022-12-09T17:26:35.388Z,85.23
2022-12-09T17:28:56.827Z,84.48
2022-12-09T17:31:18.175Z,84.48
2022-12-09T17:33:35.291Z,85.49
2022-12-09T17:35:52.834Z,85.48
2022-12-09T17:38:10.051Z,85.02
2022-12-09T17:40:26.942Z,85.29
2022-12-09T17:42:43.882Z,84.88
2022-12-09T17:45:00.823Z,85.05
2022-12-09T17:47:18.082Z,85.92
2022-12-09T17:49:35.146Z,85.12
2022-12-09T17:51:52.155Z,85.55
2022-12-09T17:54:09.168Z,85.60
2022-12-09T17:56:26.134Z,85.78
2022-12-09T17:58:43.082Z,85.10
2022-12-09T18:01:00.420Z,85.16
2022-12-09T18:03:39.332Z,85.59
2022-12-09T18:05:55.829Z,85.03
2022-12-09T18:08:12.776Z,85.10
2022-12-09T18:10:30.025Z,85.12
2022-12-09T18:12:47.007Z,85.54
2022-12-09T18:15:03.973Z,85.49
2022-12-09T18:17:21.246Z,85.59
2022-12-09T18:19:38.582Z,85.14
2022-12-09T18:21:55.559Z,85.94
2022-12-09T18:24:13.315Z,85.96
2022-12-09T18:26:34.059Z,85.63
2022-12-09T18:28:52.668Z,85.90
2022-12-09T18:31:09.737Z,85.74
2022-12-09T18:33:26.837Z,85.65
2022-12-09T18:35:43.838Z,85.81
2022-12-09T18:38:07.199Z,85.70
2022-12-09T18:40:29.732Z,85.93
2022-12-09T18:42:46.575Z,85.82
2022-12-09T18:45:03.551Z,85.76
2022-12-09T18:47:20.600Z,86.09
2022-12-09T18:49:37.866Z,85.78
2022-12-09T18:51:54.912Z,86.15
2022-12-09T18:54:11.783Z,86.26
2022-12-09T18:56:28.798Z,86.25
2022-12-09T19:01:22.737Z,86.89
2022-12-09T19:03:39.790Z,86.54
2022-12-09T19:05:56.830Z,86.84
2022-12-09T19:08:14.057Z,87.21
2022-12-09T19:10:31.024Z,87.25
2022-12-09T19:12:51.549Z,86.58
2022-12-09T19:15:12.213Z,86.88
2022-12-09T19:17:29.138Z,87.13
2022-12-09T19:19:46.094Z,87.11
2022-12-09T19:22:03.103Z,87.00
2022-12-09T19:24:20.338Z,87.34
2022-12-09T19:26:37.566Z,87.16
2022-12-09T19:28:54.620Z,87.06
2022-12-09T19:31:11.716Z,87.19
2022-12-09T19:33:28.826Z,87.69
2022-12-09T19:35:45.812Z,87.35
2022-12-09T19:38:02.671Z,87.51
2022-12-09T19:40:19.869Z,87.44
2022-12-09T19:42:37.199Z,87.66
2022-12-09T19:45:03.695Z,87.34
2022-12-09T19:47:22.412Z,87.66
2022-12-09T19:49:39.672Z,88.03
2022-12-09T19:51:56.982Z,87.63
2022-12-09T19:54:13.917Z,87.57
2022-12-09T19:56:31.148Z,87.56
2022-12-09T19:58:48.667Z,87.10
2022-12-09T20:01:06.701Z,87.54
2022-12-09T20:03:23.889Z,87.45
2022-12-09T20:05:40.870Z,87.98
2022-12-09T20:07:58.234Z,88.08
2022-12-09T20:10:15.642Z,87.94
2022-12-09T20:12:32.711Z,88.48
2022-12-09T20:14:49.613Z,87.99
2022-12-09T20:17:07.620Z,88.60
2022-12-09T20:19:24.652Z,88.07
2022-12-09T20:21:41.967Z,88.17
2022-12-09T20:23:58.976Z,88.36
2022-12-09T20:26:16.998Z,88.53
2022-12-09T20:28:33.936Z,88.25
2022-12-09T20:30:51.008Z,89.03
2022-12-09T20:33:08.044Z,88.62
2022-12-09T20:35:24.975Z,88.64
2022-12-09T20:37:41.908Z,89.11
2022-12-09T20:39:59.113Z,88.79
2022-12-09T20:42:16.042Z,88.56
2022-12-09T20:44:33.011Z,88.59
2022-12-09T20:46:49.945Z,88.88
2022-12-09T20:49:06.854Z,88.87
2022-12-09T20:51:23.843Z,88.49
2022-12-09T20:53:40.786Z,88.88
2022-12-09T20:55:58.155Z,88.93
2022-12-09T20:58:15.429Z,89.22
2022-12-09T21:00:32.449Z,88.90
2022-12-09T21:02:49.363Z,88.63
2022-12-09T21:05:07.399Z,88.71
2022-12-09T21:07:24.363Z,88.71
2022-12-09T21:09:41.376Z,89.34
2022-12-09T21:11:58.310Z,89.25
2022-12-09T21:14:15.246Z,89.00
2022-12-09T21:16:32.311Z,89.27
2022-12-09T21:18:49.568Z,89.63
2022-12-09T21:21:06.438Z,88.77
2022-12-09T21:23:33.640Z,88.88
2022-12-09T21:25:51.202Z,88.69
2022-12-09T21:28:08.495Z,89.09
2022-12-09T21:30:25.714Z,89.32
2022-12-09T21:32:43.689Z,89.39
2022-12-09T21:35:00.703Z,88.93
2022-12-09T21:37:17.715Z,89.17
2022-12-09T21:39:34.954Z,89.08
2022-12-09T21:41:52.417Z,88.94
2022-12-09T21:44:09.730Z,88.64
2022-12-09T21:46:26.802Z,88.95
2022-12-09T21:48:44.527Z,88.58
2022-12-09T21:51:03.213Z,87.97
2022-12-09T21:53:21.367Z,87.08
2022-12-09T21:55:38.403Z,86.24
2022-12-09T21:57:56.646Z,87.08
2022-12-09T22:00:13.497Z,87.02
2022-12-09T22:02:30.779Z,87.07
2022-12-09T22:04:48.069Z,86.71
2022-12-09T22:07:05.029Z,87.06
2022-12-09T22:09:22.323Z,87.33
2022-12-09T22:11:39.255Z,86.84
2022-12-09T22:13:56.294Z,86.85
2022-12-09T22:16:13.334Z,86.52
2022-12-09T22:18:30.443Z,86.91
2022-12-09T22:21:22.996Z,86.03
2022-12-09T22:23:24.461Z,85.70
2022-12-09T22:25:41.498Z,85.65
2022-12-09T22:27:58.782Z,85.98
2022-12-09T22:30:16.094Z,86.23
2022-12-09T22:32:37.868Z,86.08
2022-12-09T22:34:57.837Z,86.31
2022-12-09T22:37:42.068Z,86.66
2022-12-09T22:39:51.950Z,86.71
2022-12-09T22:42:09.181Z,86.43
2022-12-09T22:44:26.141Z,86.76
2022-12-09T22:46:43.485Z,86.50
2022-12-09T22:49:00.550Z,87.26
2022-12-09T22:51:17.859Z,86.69
2022-12-09T22:53:35.150Z,86.57
2022-12-09T22:55:52.505Z,86.00
2022-12-09T22:58:09.721Z,85.65
2022-12-09T23:00:26.658Z,84.65
2022-12-09T23:02:43.716Z,85.52
2022-12-09T23:05:01.151Z,85.14
2022-12-09T23:07:18.459Z,84.70
2022-12-09T23:09:35.697Z,84.75
2022-12-09T23:11:52.889Z,85.14
2022-12-09T23:14:10.368Z,85.58
2022-12-09T23:16:27.420Z,84.87
2022-12-09T23:18:44.614Z,84.61
2022-12-09T23:21:01.945Z,85.53
2022-12-09T23:23:18.880Z,84.89
2022-12-09T23:25:36.195Z,84.96
2022-12-09T23:27:53.185Z,85.90
2022-12-09T23:30:10.425Z,85.27
2022-12-09T23:32:28.586Z,85.85
2022-12-09T23:34:45.556Z,85.59
2022-12-09T23:37:02.873Z,86.07
2022-12-09T23:39:19.908Z,85.69
2022-12-09T23:41:37.271Z,86.05
2022-12-09T23:43:54.658Z,86.59
2022-12-09T23:46:15.822Z,85.88
2022-12-09T23:48:33.446Z,86.09
2022-12-09T23:50:50.791Z,86.63
2022-12-09T23:53:08.103Z,86.68
2022-12-09T23:55:25.594Z,86.64
2022-12-09T23:57:42.897Z,87.06
2022-12-09T23:59:59.886Z,87.28
